createdAt,value
2017-09-16T00:00:16.145Z,0
2017-09-16T00:00:56.580Z,0
2017-09-16T00:01:37.025Z,0
2017-09-16T00:02:17.466Z,0
2017-09-16T00:02:57.914Z,0
2017-09-16T00:03:38.359Z,0
2017-09-16T00:04:18.805Z,0
2017-09-16T00:04:59.251Z,0
2017-09-16T00:05:39.701Z,0
2017-09-16T00:06:20.150Z,0
2017-09-16T00:07:00.605Z,0
2017-09-16T00:07:41.051Z,0
2017-09-16T00:08:21.496Z,0
2017-09-16T00:09:01.947Z,0
2017-09-16T00:09:42.405Z,0
2017-09-16T00:10:22.851Z,0
2017-09-16T00:11:03.306Z,0
2017-09-16T00:11:43.742Z,0
2017-09-16T00:12:24.184Z,0
2017-09-16T00:13:04.634Z,0
2017-09-16T00:13:45.085Z,0
2017-09-16T00:14:25.525Z,0
2017-09-16T00:15:05.974Z,0
2017-09-16T00:15:46.416Z,0
2017-09-16T00:16:26.864Z,0
2017-09-16T00:17:07.313Z,0
2017-09-16T00:17:47.760Z,0
2017-09-16T00:18:28.211Z,0
2017-09-16T00:19:08.657Z,0
2017-09-16T00:19:49.100Z,0
2017-09-16T00:20:29.547Z,0
2017-09-16T00:21:09.999Z,0
2017-09-16T00:21:50.451Z,0
2017-09-16T00:22:30.895Z,0
2017-09-16T00:23:11.350Z,0
2017-09-16T00:23:51.799Z,0
2017-09-16T00:24:32.251Z,0
2017-09-16T00:25:12.705Z,0
2017-09-16T00:25:53.164Z,0
2017-09-16T00:26:33.603Z,0
2017-09-16T00:27:14.051Z,0
2017-09-16T00:27:54.497Z,0
2017-09-16T00:28:34.969Z,0
2017-09-16T00:29:15.395Z,0
2017-09-16T00:29:55.840Z,0
2017-09-16T00:30:36.288Z,0
2017-09-16T00:31:16.738Z,0
2017-09-16T00:31:57.186Z,0
2017-09-16T00:32:37.636Z,0
2017-09-16T00:33:18.085Z,0
2017-09-16T00:33:58.540Z,0
2017-09-16T00:34:38.989Z,0
2017-09-16T00:35:19.446Z,0
2017-09-16T00:35:59.893Z,0
2017-09-16T00:36:40.340Z,0
2017-09-16T00:37:20.785Z,0
2017-09-16T00:38:01.230Z,0
2017-09-16T00:38:41.676Z,0
2017-09-16T00:39:22.119Z,0
2017-09-16T00:40:02.569Z,0
2017-09-16T00:40:43.016Z,0
2017-09-16T00:41:23.471Z,0
2017-09-16T00:42:03.909Z,0
2017-09-16T00:42:44.358Z,0
2017-09-16T00:43:24.800Z,0
2017-09-16T00:44:05.242Z,0
2017-09-16T00:44:45.685Z,0
2017-09-16T00:45:26.134Z,0
2017-09-16T00:46:06.581Z,0
2017-09-16T00:46:47.036Z,0
2017-09-16T00:47:27.484Z,0
2017-09-16T00:48:07.927Z,0
2017-09-16T00:48:48.376Z,0
2017-09-16T00:49:28.820Z,0
2017-09-16T00:50:09.269Z,0
2017-09-16T00:50:49.712Z,0
2017-09-16T00:51:30.161Z,0
2017-09-16T00:52:10.603Z,0
2017-09-16T00:52:51.052Z,0
2017-09-16T00:53:31.507Z,0
2017-09-16T00:54:11.957Z,0
2017-09-16T00:54:52.404Z,0
2017-09-16T00:55:32.852Z,0
2017-09-16T00:56:13.300Z,0
2017-09-16T00:56:53.784Z,0
2017-09-16T00:57:34.235Z,0
2017-09-16T00:58:14.676Z,0
2017-09-16T00:58:55.109Z,0
2017-09-16T00:59:35.556Z,0
2017-09-16T01:00:16.007Z,0
2017-09-16T01:00:56.464Z,0
2017-09-16T01:01:36.896Z,0
2017-09-16T01:02:17.348Z,0
2017-09-16T01:02:57.800Z,0
2017-09-16T01:03:38.245Z,0
2017-09-16T01:04:18.691Z,0
2017-09-16T01:04:59.143Z,0
2017-09-16T01:05:39.594Z,0
2017-09-16T01:06:20.034Z,0
2017-09-16T01:07:00.489Z,0
2017-09-16T01:07:40.936Z,0
2017-09-16T01:08:21.383Z,0
2017-09-16T01:09:01.841Z,0
2017-09-16T01:09:42.287Z,0
2017-09-16T01:10:22.737Z,0
2017-09-16T01:11:03.190Z,0
2017-09-16T01:11:43.636Z,0
2017-09-16T01:12:24.086Z,0
2017-09-16T01:13:04.548Z,0
2017-09-16T01:13:44.990Z,0
2017-09-16T01:14:25.437Z,0
2017-09-16T01:15:05.897Z,0
2017-09-16T01:15:46.339Z,0
2017-09-16T01:16:26.782Z,0
2017-09-16T01:17:07.226Z,0
2017-09-16T01:17:47.681Z,0
2017-09-16T01:18:28.122Z,0
2017-09-16T01:19:08.567Z,0
2017-09-16T01:19:49.014Z,0
2017-09-16T01:20:29.461Z,0
2017-09-16T01:21:09.900Z,0
2017-09-16T01:21:50.339Z,0
2017-09-16T01:22:30.788Z,0
2017-09-16T01:23:11.240Z,0
2017-09-16T01:23:51.691Z,0
2017-09-16T01:24:32.145Z,0
2017-09-16T01:25:12.599Z,0
2017-09-16T01:25:53.046Z,0
2017-09-16T01:26:33.494Z,0
2017-09-16T01:27:13.942Z,0
2017-09-16T01:27:54.390Z,0
2017-09-16T01:28:34.864Z,0
2017-09-16T01:29:15.305Z,0
2017-09-16T01:29:55.749Z,0
2017-09-16T01:30:36.197Z,0
2017-09-16T01:31:16.649Z,0
2017-09-16T01:31:57.095Z,0
2017-09-16T01:32:37.541Z,0
2017-09-16T01:33:18.003Z,0
2017-09-16T01:33:58.456Z,0
2017-09-16T01:34:38.907Z,0
2017-09-16T01:35:19.354Z,0
2017-09-16T01:35:59.802Z,0
2017-09-16T01:36:40.246Z,0
2017-09-16T01:37:20.685Z,0
2017-09-16T01:38:01.130Z,0
2017-09-16T01:38:41.580Z,0
2017-09-16T01:39:22.029Z,0
2017-09-16T01:40:02.476Z,0
2017-09-16T01:40:42.918Z,0
2017-09-16T01:41:23.346Z,0
2017-09-16T01:42:03.788Z,0
2017-09-16T01:42:44.232Z,0
2017-09-16T01:43:24.685Z,0
2017-09-16T01:44:05.133Z,0
2017-09-16T01:44:45.580Z,0
2017-09-16T01:45:26.028Z,0
2017-09-16T01:46:06.479Z,0
2017-09-16T01:46:46.925Z,0
2017-09-16T01:47:27.374Z,0
2017-09-16T01:48:07.822Z,0
2017-09-16T01:48:48.268Z,0
2017-09-16T01:49:28.720Z,0
2017-09-16T01:50:09.168Z,0
2017-09-16T01:50:49.625Z,0
2017-09-16T01:51:30.068Z,0
2017-09-16T01:52:10.529Z,0
2017-09-16T01:52:50.959Z,0
2017-09-16T01:53:31.410Z,0
2017-09-16T01:54:11.858Z,0
2017-09-16T01:54:52.306Z,0
2017-09-16T01:55:32.751Z,0
2017-09-16T01:56:13.209Z,0
2017-09-16T01:56:53.662Z,0
2017-09-16T01:57:34.113Z,0
2017-09-16T01:58:14.560Z,0
2017-09-16T01:58:55.010Z,0
2017-09-16T01:59:35.469Z,0
2017-09-16T02:00:15.915Z,0
2017-09-16T02:00:56.365Z,0
2017-09-16T02:01:36.816Z,0
2017-09-16T02:02:17.260Z,0
2017-09-16T02:02:57.705Z,0
2017-09-16T02:03:38.158Z,0
2017-09-16T02:04:18.607Z,0
2017-09-16T02:04:59.052Z,0
2017-09-16T02:05:39.503Z,0
2017-09-16T02:06:19.949Z,0
2017-09-16T02:07:00.399Z,0
2017-09-16T02:07:40.856Z,0
2017-09-16T02:08:21.303Z,0
2017-09-16T02:09:01.749Z,0
2017-09-16T02:09:42.204Z,0
2017-09-16T02:10:22.650Z,0
2017-09-16T02:11:03.104Z,0
2017-09-16T02:11:43.552Z,0
2017-09-16T02:12:24.000Z,0
2017-09-16T02:13:04.457Z,0
2017-09-16T02:13:44.904Z,0
2017-09-16T02:14:25.350Z,0
2017-09-16T02:15:05.803Z,0
2017-09-16T02:15:46.248Z,0
2017-09-16T02:16:26.700Z,0
2017-09-16T02:17:07.145Z,0
2017-09-16T02:17:47.596Z,0
2017-09-16T02:18:28.043Z,0
2017-09-16T02:19:08.492Z,0
2017-09-16T02:19:48.945Z,0
2017-09-16T02:20:29.395Z,0
2017-09-16T02:21:09.847Z,0
2017-09-16T02:21:50.291Z,0
2017-09-16T02:22:30.741Z,0
2017-09-16T02:23:11.191Z,0
2017-09-16T02:23:51.635Z,0
2017-09-16T02:24:32.088Z,0
2017-09-16T02:25:12.531Z,0
2017-09-16T02:25:52.983Z,0
2017-09-16T02:26:33.454Z,0
2017-09-16T02:27:13.903Z,0
2017-09-16T02:27:54.356Z,0
2017-09-16T02:28:34.805Z,0
2017-09-16T02:29:15.253Z,0
2017-09-16T02:29:55.700Z,0
2017-09-16T02:30:36.150Z,0
2017-09-16T02:31:16.600Z,0
2017-09-16T02:31:57.051Z,0
2017-09-16T02:32:37.494Z,0
2017-09-16T02:33:17.950Z,0
2017-09-16T02:33:58.401Z,0
2017-09-16T02:34:38.849Z,0
2017-09-16T02:35:19.299Z,0
2017-09-16T02:35:59.751Z,0
2017-09-16T02:36:40.212Z,0
2017-09-16T02:37:20.665Z,0
2017-09-16T02:38:01.112Z,0
2017-09-16T02:38:41.562Z,0
2017-09-16T02:39:22.009Z,0
2017-09-16T02:40:02.462Z,0
2017-09-16T02:40:42.909Z,0
2017-09-16T02:41:23.355Z,0
2017-09-16T02:42:03.799Z,0
2017-09-16T02:42:44.249Z,0
2017-09-16T02:43:24.698Z,0
2017-09-16T02:44:05.146Z,0
2017-09-16T02:44:45.600Z,0
2017-09-16T02:45:26.048Z,0
2017-09-16T02:46:06.499Z,0
2017-09-16T02:46:46.949Z,0
2017-09-16T02:47:27.387Z,0
2017-09-16T02:48:07.834Z,0
2017-09-16T02:48:48.290Z,0
2017-09-16T02:49:28.738Z,0
2017-09-16T02:50:09.195Z,0
2017-09-16T02:50:49.638Z,0
2017-09-16T02:51:30.088Z,0
2017-09-16T02:52:10.533Z,0
2017-09-16T02:52:50.979Z,0
2017-09-16T02:53:31.423Z,0
2017-09-16T02:54:11.874Z,0
2017-09-16T02:54:52.322Z,0
2017-09-16T02:55:32.755Z,0
2017-09-16T02:56:13.203Z,0
2017-09-16T02:56:53.648Z,0
2017-09-16T02:57:34.097Z,0
2017-09-16T02:58:14.549Z,0
2017-09-16T02:58:55.002Z,0
2017-09-16T02:59:35.449Z,0
2017-09-16T03:00:15.894Z,0
2017-09-16T03:00:56.346Z,0
2017-09-16T03:01:36.791Z,0
2017-09-16T03:02:17.255Z,0
2017-09-16T03:02:57.699Z,0
2017-09-16T03:03:38.148Z,0
2017-09-16T03:04:18.601Z,0
2017-09-16T03:04:59.047Z,0
2017-09-16T03:05:39.494Z,0
2017-09-16T03:06:19.951Z,0
2017-09-16T03:07:00.398Z,0
2017-09-16T03:07:40.846Z,0
2017-09-16T03:08:21.295Z,0
2017-09-16T03:09:01.759Z,0
2017-09-16T03:09:42.208Z,0
2017-09-16T03:10:22.661Z,0
2017-09-16T03:11:03.116Z,0
2017-09-16T03:11:43.565Z,0
2017-09-16T03:12:24.013Z,0
2017-09-16T03:13:04.466Z,0
2017-09-16T03:13:44.921Z,0
2017-09-16T03:14:25.370Z,0
2017-09-16T03:15:05.825Z,0
2017-09-16T03:15:46.275Z,0
2017-09-16T03:16:26.728Z,0
2017-09-16T03:17:07.174Z,0
2017-09-16T03:17:47.624Z,0
2017-09-16T03:18:28.073Z,0
2017-09-16T03:19:08.530Z,0
2017-09-16T03:19:48.978Z,0
2017-09-16T03:20:29.427Z,0
2017-09-16T03:21:09.872Z,0
2017-09-16T03:21:50.323Z,0
2017-09-16T03:22:30.779Z,0
2017-09-16T03:23:11.227Z,0
2017-09-16T03:23:51.682Z,0
2017-09-16T03:24:32.124Z,0
2017-09-16T03:25:12.579Z,0
2017-09-16T03:25:53.033Z,0
2017-09-16T03:26:33.479Z,0
2017-09-16T03:27:13.927Z,0
2017-09-16T03:27:54.381Z,0
2017-09-16T03:28:34.832Z,0
2017-09-16T03:29:15.283Z,0
2017-09-16T03:29:55.734Z,0
2017-09-16T03:30:36.192Z,0
2017-09-16T03:31:16.643Z,0
2017-09-16T03:31:57.096Z,0
2017-09-16T03:32:37.545Z,0
2017-09-16T03:33:17.997Z,0
2017-09-16T03:33:58.448Z,0
2017-09-16T03:34:38.892Z,0
2017-09-16T03:35:19.347Z,0
2017-09-16T03:35:59.791Z,0
2017-09-16T03:36:40.239Z,0
2017-09-16T03:37:20.691Z,0
2017-09-16T03:38:01.138Z,0
2017-09-16T03:38:41.602Z,0
2017-09-16T03:39:22.047Z,0
2017-09-16T03:40:02.493Z,0
2017-09-16T03:40:42.942Z,0
2017-09-16T03:41:23.392Z,0
2017-09-16T03:42:03.847Z,0
2017-09-16T03:42:44.291Z,0
2017-09-16T03:43:24.740Z,0
2017-09-16T03:44:05.186Z,0
2017-09-16T03:44:45.641Z,0
2017-09-16T03:45:26.090Z,0
2017-09-16T03:46:06.543Z,0
2017-09-16T03:46:46.994Z,0
2017-09-16T03:47:27.444Z,0
2017-09-16T03:48:07.888Z,0
2017-09-16T03:48:48.335Z,0
2017-09-16T03:49:28.783Z,0
2017-09-16T03:50:09.231Z,0
2017-09-16T03:50:49.682Z,0
2017-09-16T03:51:30.127Z,0
2017-09-16T03:52:10.581Z,0
2017-09-16T03:52:51.026Z,0
2017-09-16T03:53:31.471Z,0
2017-09-16T03:54:11.921Z,0
2017-09-16T03:54:52.373Z,0
2017-09-16T03:55:32.815Z,0
2017-09-16T03:56:13.264Z,0
2017-09-16T03:56:53.712Z,0
2017-09-16T03:57:34.159Z,0
2017-09-16T03:58:14.614Z,0
2017-09-16T03:58:55.055Z,0
2017-09-16T03:59:35.505Z,0
2017-09-16T04:00:15.953Z,0
2017-09-16T04:00:56.403Z,0
2017-09-16T04:01:36.854Z,0
2017-09-16T04:02:17.295Z,0
2017-09-16T04:02:57.743Z,0
2017-09-16T04:03:38.197Z,0
2017-09-16T04:04:18.642Z,0
2017-09-16T04:04:59.100Z,0
2017-09-16T04:05:39.550Z,0
2017-09-16T04:06:19.999Z,0
2017-09-16T04:07:00.447Z,0
2017-09-16T04:07:40.893Z,0
2017-09-16T04:08:21.341Z,0
2017-09-16T04:09:01.783Z,0
2017-09-16T04:09:42.231Z,0
2017-09-16T04:10:22.674Z,0
2017-09-16T04:11:03.122Z,0
2017-09-16T04:11:43.570Z,0
2017-09-16T04:12:24.018Z,0
2017-09-16T04:13:04.459Z,0
2017-09-16T04:13:44.914Z,0
2017-09-16T04:14:25.364Z,0
2017-09-16T04:15:05.816Z,0
2017-09-16T04:15:46.260Z,0
2017-09-16T04:16:26.709Z,0
2017-09-16T04:17:07.160Z,0
2017-09-16T04:17:47.608Z,0
2017-09-16T04:18:28.050Z,0
2017-09-16T04:19:08.518Z,0
2017-09-16T04:19:48.953Z,0
2017-09-16T04:20:29.400Z,0
2017-09-16T04:21:09.846Z,0
2017-09-16T04:21:50.294Z,0
2017-09-16T04:22:30.740Z,0
2017-09-16T04:23:11.184Z,0
2017-09-16T04:23:51.632Z,0
2017-09-16T04:24:32.087Z,0
2017-09-16T04:25:12.536Z,0
2017-09-16T04:25:52.983Z,0
2017-09-16T04:26:33.432Z,0
2017-09-16T04:27:13.886Z,0
2017-09-16T04:27:54.350Z,0
2017-09-16T04:28:34.797Z,0
2017-09-16T04:29:15.244Z,0
2017-09-16T04:29:55.686Z,0
2017-09-16T04:30:36.144Z,0
2017-09-16T04:31:16.592Z,0
2017-09-16T04:31:57.045Z,0
2017-09-16T04:32:37.506Z,0
2017-09-16T04:33:17.958Z,0
2017-09-16T04:33:58.412Z,0
2017-09-16T04:34:38.858Z,0
2017-09-16T04:35:19.299Z,0
2017-09-16T04:35:59.745Z,0
2017-09-16T04:36:40.193Z,0
2017-09-16T04:37:20.648Z,0
2017-09-16T04:38:01.092Z,0
2017-09-16T04:38:41.538Z,0
2017-09-16T04:39:21.999Z,0
2017-09-16T04:40:02.447Z,0
2017-09-16T04:40:42.898Z,0
2017-09-16T04:41:23.344Z,0
2017-09-16T04:42:03.791Z,0
2017-09-16T04:42:44.240Z,0
2017-09-16T04:43:24.688Z,0
2017-09-16T04:44:05.134Z,0
2017-09-16T04:44:45.575Z,0
2017-09-16T04:45:26.019Z,0
2017-09-16T04:46:06.470Z,0
2017-09-16T04:46:46.922Z,0
2017-09-16T04:47:27.370Z,0
2017-09-16T04:48:07.820Z,0
2017-09-16T04:48:48.268Z,0
2017-09-16T04:49:28.720Z,0
2017-09-16T04:50:09.171Z,0
2017-09-16T04:50:49.619Z,0
2017-09-16T04:51:30.067Z,0
2017-09-16T04:52:10.521Z,0
2017-09-16T04:52:50.976Z,0
2017-09-16T04:53:31.431Z,0
2017-09-16T04:54:11.881Z,0
2017-09-16T04:54:52.333Z,0
2017-09-16T04:55:32.779Z,0
2017-09-16T04:56:13.229Z,0
2017-09-16T04:56:53.692Z,0
2017-09-16T04:57:34.141Z,0
2017-09-16T04:58:14.585Z,0
2017-09-16T04:58:55.037Z,0
2017-09-16T04:59:35.495Z,0
2017-09-16T05:00:15.960Z,0
2017-09-16T05:00:56.522Z,0
2017-09-16T05:01:36.967Z,0
2017-09-16T05:02:17.400Z,0
2017-09-16T05:02:57.878Z,0
2017-09-16T05:03:38.329Z,0
2017-09-16T05:04:18.784Z,0
2017-09-16T05:04:59.228Z,0
2017-09-16T05:05:39.688Z,0
2017-09-16T05:06:20.140Z,0
2017-09-16T05:07:00.586Z,0
2017-09-16T05:07:41.032Z,0
2017-09-16T05:08:21.485Z,0
2017-09-16T05:09:01.943Z,0
2017-09-16T05:09:42.406Z,0
2017-09-16T05:10:22.863Z,0
2017-09-16T05:11:03.312Z,0
2017-09-16T05:11:43.763Z,0
2017-09-16T05:12:24.209Z,0
2017-09-16T05:13:04.657Z,0
2017-09-16T05:13:45.105Z,0
2017-09-16T05:14:25.560Z,0
2017-09-16T05:15:06.012Z,0
2017-09-16T05:15:46.462Z,0
2017-09-16T05:16:26.927Z,0
2017-09-16T05:17:07.355Z,0
2017-09-16T05:17:47.802Z,4
2017-09-16T05:18:28.248Z,4
2017-09-16T05:19:08.688Z,4
2017-09-16T05:19:49.448Z,4
2017-09-16T05:20:29.894Z,4
2017-09-16T05:21:10.343Z,4
2017-09-16T05:21:50.802Z,4
2017-09-16T05:22:31.245Z,4
2017-09-16T05:23:11.707Z,4
2017-09-16T05:23:52.147Z,4
2017-09-16T05:24:32.596Z,4
2017-09-16T05:25:13.042Z,4
2017-09-16T05:25:53.493Z,4
2017-09-16T05:26:33.942Z,4
2017-09-16T05:27:14.392Z,4
2017-09-16T05:27:54.827Z,0
2017-09-16T05:28:35.275Z,0
2017-09-16T05:29:15.723Z,0
2017-09-16T05:29:56.178Z,0
2017-09-16T05:30:36.627Z,0
2017-09-16T05:31:17.055Z,0
2017-09-16T05:31:57.505Z,0
2017-09-16T05:32:37.944Z,0
2017-09-16T05:33:18.398Z,0
2017-09-16T05:33:58.854Z,0
2017-09-16T05:34:39.315Z,0
2017-09-16T05:35:19.758Z,4
2017-09-16T05:36:00.192Z,4
2017-09-16T05:36:40.641Z,4
2017-09-16T05:37:21.096Z,4
2017-09-16T05:38:01.544Z,4
2017-09-16T05:38:41.993Z,4
2017-09-16T05:39:22.441Z,4
2017-09-16T05:40:02.892Z,4
2017-09-16T05:40:43.336Z,4
2017-09-16T05:41:23.764Z,4
2017-09-16T05:42:04.226Z,4
2017-09-16T05:42:44.674Z,4
2017-09-16T05:43:25.124Z,4
2017-09-16T05:44:05.570Z,4
2017-09-16T05:44:46.023Z,4
2017-09-16T05:45:26.466Z,4
2017-09-16T05:46:06.909Z,4
2017-09-16T05:46:47.345Z,4
2017-09-16T05:47:27.797Z,4
2017-09-16T05:48:08.241Z,4
2017-09-16T05:48:48.704Z,4
2017-09-16T05:49:29.304Z,0
2017-09-16T05:51:57.416Z,4
2017-09-16T05:52:37.864Z,4
2017-09-16T05:53:18.322Z,4
2017-09-16T05:53:58.755Z,4
2017-09-16T05:54:39.203Z,4
2017-09-16T05:55:19.673Z,4
2017-09-16T05:56:00.118Z,4
2017-09-16T05:56:40.566Z,4
2017-09-16T05:57:21.034Z,4
2017-09-16T05:58:01.481Z,8
2017-09-16T05:58:41.931Z,4
2017-09-16T05:59:22.423Z,4
2017-09-16T06:00:02.878Z,4
2017-09-16T06:00:43.318Z,8
2017-09-16T06:01:23.767Z,8
2017-09-16T06:02:04.254Z,8
2017-09-16T06:02:44.704Z,8
2017-09-16T06:03:25.134Z,12
2017-09-16T06:04:05.562Z,12
2017-09-16T06:04:45.996Z,8
2017-09-16T06:05:26.444Z,12
2017-09-16T06:06:06.891Z,12
2017-09-16T06:06:47.341Z,8
2017-09-16T06:07:27.783Z,12
2017-09-16T06:08:08.235Z,12
2017-09-16T06:08:48.683Z,12
2017-09-16T06:09:29.133Z,12
2017-09-16T06:10:09.578Z,12
2017-09-16T06:10:50.029Z,12
2017-09-16T06:11:30.472Z,16
2017-09-16T06:12:10.945Z,12
2017-09-16T06:12:51.396Z,16
2017-09-16T06:13:31.833Z,16
2017-09-16T06:14:12.270Z,12
2017-09-16T06:14:52.710Z,16
2017-09-16T06:15:33.155Z,16
2017-09-16T06:16:13.597Z,16
2017-09-16T06:16:54.037Z,16
2017-09-16T06:17:34.478Z,16
2017-09-16T06:18:14.936Z,16
2017-09-16T06:18:55.421Z,16
2017-09-16T06:19:35.887Z,20
2017-09-16T06:20:16.504Z,16
2017-09-16T06:20:56.946Z,16
2017-09-16T06:21:37.408Z,20
2017-09-16T06:22:17.847Z,20
2017-09-16T06:22:58.293Z,16
2017-09-16T06:23:38.736Z,20
2017-09-16T06:24:19.169Z,20
2017-09-16T06:24:59.610Z,20
2017-09-16T06:25:40.070Z,20
2017-09-16T06:26:20.520Z,20
2017-09-16T06:27:00.977Z,24
2017-09-16T06:27:41.421Z,20
2017-09-16T06:28:21.864Z,24
2017-09-16T06:29:02.307Z,24
2017-09-16T06:29:42.763Z,20
2017-09-16T06:30:23.203Z,24
2017-09-16T06:31:03.648Z,24
2017-09-16T06:31:44.067Z,20
2017-09-16T06:32:24.509Z,24
2017-09-16T06:33:04.949Z,24
2017-09-16T06:33:45.485Z,28
2017-09-16T06:36:03.332Z,28
2017-09-16T06:36:43.784Z,24
2017-09-16T06:37:24.229Z,28
2017-09-16T06:38:04.671Z,28
2017-09-16T06:38:45.094Z,28
2017-09-16T06:39:25.557Z,28
2017-09-16T06:40:05.982Z,28
2017-09-16T06:40:46.399Z,28
2017-09-16T06:41:26.842Z,28
2017-09-16T06:42:07.252Z,28
2017-09-16T06:42:47.621Z,28
2017-09-16T06:43:28.037Z,32
2017-09-16T06:44:08.453Z,28
2017-09-16T06:44:48.887Z,28
2017-09-16T06:45:29.324Z,32
2017-09-16T06:46:09.767Z,28
2017-09-16T06:46:50.231Z,32
2017-09-16T06:47:30.682Z,32
2017-09-16T06:48:11.146Z,32
2017-09-16T06:48:51.556Z,32
2017-09-16T06:51:04.383Z,36
2017-09-16T06:51:44.834Z,32
2017-09-16T06:52:25.267Z,36
2017-09-16T06:53:05.709Z,36
2017-09-16T06:53:46.152Z,36
2017-09-16T06:54:26.601Z,36
2017-09-16T06:55:07.048Z,36
2017-09-16T06:55:47.499Z,36
2017-09-16T06:56:27.941Z,40
2017-09-16T06:57:08.390Z,36
2017-09-16T06:57:48.837Z,40
2017-09-16T06:58:29.273Z,36
2017-09-16T06:59:09.738Z,40
2017-09-16T06:59:50.180Z,40
2017-09-16T07:00:30.616Z,40
2017-09-16T07:01:11.064Z,40
2017-09-16T07:01:51.502Z,44
2017-09-16T07:02:31.987Z,40
2017-09-16T07:03:12.441Z,44
2017-09-16T07:03:52.897Z,44
2017-09-16T07:04:33.363Z,44
2017-09-16T07:05:13.817Z,44
2017-09-16T07:05:54.252Z,44
2017-09-16T07:06:34.695Z,44
2017-09-16T07:07:15.140Z,48
2017-09-16T07:07:55.591Z,44
2017-09-16T07:08:36.044Z,48
2017-09-16T07:09:16.491Z,48
2017-09-16T07:09:56.942Z,48
2017-09-16T07:10:37.389Z,48
2017-09-16T07:11:17.836Z,48
2017-09-16T07:11:58.285Z,48
2017-09-16T07:12:38.743Z,52
2017-09-16T07:13:19.202Z,48
2017-09-16T07:13:59.649Z,52
2017-09-16T07:14:40.096Z,48
2017-09-16T07:15:20.547Z,52
2017-09-16T07:16:00.993Z,52
2017-09-16T07:16:41.442Z,52
2017-09-16T07:19:14.447Z,56
2017-09-16T07:19:54.884Z,52
2017-09-16T07:20:35.330Z,56
2017-09-16T07:21:15.770Z,56
2017-09-16T07:21:56.220Z,56
2017-09-16T07:22:36.688Z,56
2017-09-16T07:23:17.137Z,56
2017-09-16T07:23:57.592Z,56
2017-09-16T07:24:38.041Z,60
2017-09-16T07:25:18.489Z,56
2017-09-16T07:25:58.935Z,60
2017-09-16T07:26:39.379Z,60
2017-09-16T07:27:19.836Z,60
2017-09-16T07:28:00.282Z,60
2017-09-16T07:28:40.738Z,56
2017-09-16T07:29:21.171Z,60
2017-09-16T07:30:01.627Z,60
2017-09-16T07:30:42.053Z,60
2017-09-16T07:31:22.517Z,60
2017-09-16T07:32:02.961Z,64
2017-09-16T07:32:43.410Z,60
2017-09-16T07:33:23.855Z,64
2017-09-16T07:34:04.299Z,60
2017-09-16T07:34:44.749Z,64
2017-09-16T07:35:25.197Z,64
2017-09-16T07:36:05.647Z,64
2017-09-16T07:36:46.109Z,64
2017-09-16T07:37:26.562Z,2360
2017-09-16T07:38:07.005Z,3024
2017-09-16T07:38:47.443Z,3432
2017-09-16T07:39:27.895Z,4056
2017-09-16T07:40:08.360Z,4064
2017-09-16T07:40:48.803Z,4072
2017-09-16T07:41:29.251Z,4080
2017-09-16T07:42:09.936Z,4092
2017-09-16T07:42:50.292Z,4108
2017-09-16T07:43:30.733Z,3128
2017-09-16T07:44:11.166Z,3144
2017-09-16T07:44:51.610Z,3164
2017-09-16T07:45:32.060Z,3172
2017-09-16T07:46:12.509Z,3188
2017-09-16T07:46:52.952Z,3216
2017-09-16T07:47:33.404Z,3224
2017-09-16T07:48:13.851Z,3248
2017-09-16T07:48:54.295Z,3268
2017-09-16T07:49:34.746Z,3288
2017-09-16T07:50:15.188Z,3292
2017-09-16T07:50:55.633Z,3292
2017-09-16T07:51:36.439Z,3300
2017-09-16T07:52:16.907Z,3316
2017-09-16T07:52:57.402Z,3364
2017-09-16T07:53:37.832Z,3388
2017-09-16T07:54:18.280Z,3400
2017-09-16T07:54:58.714Z,3416
2017-09-16T07:55:39.167Z,3428
2017-09-16T07:56:19.631Z,3448
2017-09-16T07:57:00.066Z,3460
2017-09-16T07:57:40.510Z,3476
2017-09-16T07:58:20.973Z,3484
2017-09-16T07:59:01.425Z,3500
2017-09-16T07:59:41.859Z,3532
2017-09-16T08:00:22.305Z,3464
2017-09-16T08:01:02.745Z,3604
2017-09-16T08:01:43.196Z,3584
2017-09-16T08:02:23.646Z,3588
2017-09-16T08:03:04.096Z,3604
2017-09-16T08:03:44.540Z,3632
2017-09-16T08:04:24.983Z,3652
2017-09-16T08:05:05.428Z,3664
2017-09-16T08:05:45.870Z,3684
2017-09-16T08:06:26.308Z,3704
2017-09-16T08:07:06.756Z,3716
2017-09-16T08:07:47.205Z,3732
2017-09-16T08:08:27.645Z,3752
2017-09-16T08:09:08.095Z,3760
2017-09-16T08:09:48.537Z,3772
2017-09-16T08:10:28.989Z,3784
2017-09-16T08:11:09.438Z,3804
2017-09-16T08:11:49.886Z,3812
2017-09-16T08:12:30.334Z,3816
2017-09-16T08:13:10.774Z,3800
2017-09-16T08:13:51.225Z,3852
2017-09-16T08:14:31.667Z,3888
2017-09-16T08:15:12.115Z,3888
2017-09-16T08:15:52.557Z,3892
2017-09-16T08:16:33.011Z,3908
2017-09-16T08:17:13.456Z,3920
2017-09-16T08:17:53.904Z,3956
2017-09-16T08:18:34.347Z,3980
2017-09-16T08:19:14.795Z,3988
2017-09-16T08:19:55.225Z,3992
2017-09-16T08:20:35.672Z,4016
2017-09-16T08:21:16.118Z,4020
2017-09-16T08:21:56.562Z,4032
2017-09-16T08:22:37.018Z,4056
2017-09-16T08:23:17.468Z,4072
2017-09-16T08:23:57.919Z,4088
2017-09-16T08:24:38.367Z,4092
2017-09-16T08:25:18.814Z,4104
2017-09-16T08:25:59.233Z,4112
2017-09-16T08:26:39.683Z,4128
2017-09-16T08:27:20.134Z,4144
2017-09-16T08:28:00.586Z,4160
2017-09-16T08:28:41.073Z,4164
2017-09-16T08:29:21.504Z,4172
2017-09-16T08:30:01.947Z,4188
2017-09-16T08:30:42.397Z,4204
2017-09-16T08:31:22.845Z,4212
2017-09-16T08:32:03.294Z,4224
2017-09-16T08:32:43.748Z,4244
2017-09-16T08:33:24.198Z,4260
2017-09-16T08:34:04.650Z,4252
2017-09-16T08:34:45.086Z,4252
2017-09-16T08:35:25.534Z,4260
2017-09-16T08:36:05.984Z,4284
2017-09-16T08:36:46.433Z,4308
2017-09-16T08:37:26.879Z,4320
2017-09-16T08:38:07.329Z,4336
2017-09-16T08:38:47.787Z,4340
2017-09-16T08:39:28.238Z,4356
2017-09-16T08:40:08.678Z,4372
2017-09-16T08:40:49.126Z,4396
2017-09-16T08:41:29.575Z,4404
2017-09-16T08:42:10.013Z,4416
2017-09-16T08:42:50.462Z,4408
2017-09-16T08:43:30.914Z,4420
2017-09-16T08:44:11.706Z,4428
2017-09-16T08:44:52.170Z,4424
2017-09-16T08:46:49.862Z,4472
2017-09-16T08:47:30.309Z,4492
2017-09-16T08:48:10.750Z,4476
2017-09-16T08:48:51.200Z,4508
2017-09-16T08:49:31.645Z,4532
2017-09-16T08:50:12.096Z,4512
2017-09-16T08:50:52.543Z,4560
2017-09-16T08:51:32.997Z,4560
2017-09-16T08:52:13.450Z,4568
2017-09-16T08:52:53.922Z,4584
2017-09-16T08:53:34.363Z,4600
2017-09-16T08:54:14.811Z,4612
2017-09-16T08:54:55.265Z,4616
2017-09-16T08:55:35.710Z,4596
2017-09-16T08:56:16.169Z,4628
2017-09-16T08:56:56.603Z,4644
2017-09-16T08:57:37.049Z,4628
2017-09-16T08:58:17.503Z,4624
2017-09-16T08:58:57.931Z,4640
2017-09-16T08:59:38.379Z,4668
2017-09-16T09:00:18.808Z,4684
2017-09-16T09:00:59.254Z,4696
2017-09-16T09:01:39.706Z,4696
2017-09-16T09:02:20.155Z,4704
2017-09-16T09:03:00.621Z,4728
2017-09-16T09:03:41.070Z,4752
2017-09-16T09:04:21.519Z,4728
2017-09-16T09:05:01.972Z,4456
2017-09-16T09:05:42.416Z,4440
2017-09-16T09:06:22.860Z,4644
2017-09-16T09:07:03.313Z,4772
2017-09-16T09:07:43.757Z,4792
2017-09-16T09:08:24.203Z,4864
2017-09-16T09:09:04.653Z,4672
2017-09-16T09:09:45.107Z,4584
2017-09-16T09:10:25.556Z,4736
2017-09-16T09:11:06.011Z,4968
2017-09-16T09:11:46.465Z,4984
2017-09-16T09:12:26.908Z,4892
2017-09-16T09:13:07.364Z,5000
2017-09-16T09:13:47.806Z,4900
2017-09-16T09:14:28.254Z,5100
2017-09-16T09:15:08.696Z,4788
2017-09-16T09:15:49.168Z,4796
2017-09-16T09:16:29.584Z,4304
2017-09-16T09:17:10.028Z,3708
2017-09-16T09:17:50.475Z,3740
2017-09-16T09:18:30.965Z,3804
2017-09-16T09:19:11.417Z,3452
2017-09-16T09:19:51.862Z,3356
2017-09-16T09:20:32.313Z,3752
2017-09-16T09:21:12.773Z,3448
2017-09-16T09:21:53.222Z,3540
2017-09-16T09:22:33.663Z,3832
2017-09-16T09:23:14.122Z,3380
2017-09-16T09:23:54.578Z,3612
2017-09-16T09:24:35.030Z,3552
2017-09-16T09:25:15.479Z,3404
2017-09-16T09:25:55.930Z,3920
2017-09-16T09:26:36.368Z,3744
2017-09-16T09:27:16.798Z,4212
2017-09-16T09:27:57.254Z,4060
2017-09-16T09:28:37.702Z,4112
2017-09-16T09:29:18.149Z,3980
2017-09-16T09:29:58.606Z,4060
2017-09-16T09:31:56.295Z,4488
2017-09-16T09:32:36.741Z,4324
2017-09-16T09:33:17.225Z,4640
2017-09-16T09:33:57.591Z,3976
2017-09-16T09:34:38.045Z,4328
2017-09-16T09:35:18.864Z,4836
2017-09-16T09:35:59.952Z,4272
2017-09-16T09:36:40.460Z,4348
2017-09-16T09:37:20.967Z,4932
2017-09-16T09:38:01.570Z,4940
2017-09-16T09:38:41.899Z,4856
2017-09-16T09:39:22.501Z,4776
2017-09-16T09:40:03.413Z,4372
2017-09-16T09:42:21.446Z,5232
2017-09-16T09:43:01.896Z,5112
2017-09-16T09:43:42.344Z,5056
2017-09-16T09:44:22.795Z,5216
2017-09-16T09:45:04.360Z,5100
2017-09-16T09:45:46.625Z,5208
2017-09-16T09:46:27.074Z,5140
2017-09-16T09:47:07.511Z,5164
2017-09-16T09:47:47.962Z,5272
2017-09-16T09:48:28.412Z,1304
2017-09-16T09:49:08.849Z,1260
2017-09-16T09:51:21.617Z,5516
2017-09-16T09:52:02.071Z,2412
2017-09-16T09:52:42.521Z,5444